Time;durP1;ratioP1;P1;durP2;ratioP2;P2;SDS_P1;SDS_P2;PMS_P1;PMS_P2;Temp;Humidity;BMP_temperature;BMP_pressure;BME280_temperature;BME280_humidity;BME280_pressure;Samples;Min_cycle;Max_cycle;Signal;HPM_P1;HPM_P2
2022/09/22 00:00:39;;;;;;;3.77;2.20;;;;;;;;;;5118883;28;20464;-69
2022/09/22 00:03:10;;;;;;;3.20;2.13;;;;;;;;;;5125115;27;20556;-69
2022/09/22 00:05:37;;;;;;;3.27;2.37;;;;;;;;;;5129817;27;20556;-70
2022/09/22 00:08:04;;;;;;;3.90;1.97;;;;;;;;;;5123653;27;21076;-69
2022/09/22 00:10:31;;;;;;;3.20;2.63;;;;;;;;;;5128673;27;20895;-69
2022/09/22 00:12:58;;;;;;;3.80;1.57;;;;;;;;;;5121776;27;20457;-69
2022/09/22 00:15:25;;;;;;;2.90;1.93;;;;;;;;;;5126568;27;20531;-69
2022/09/22 00:17:56;;;;;;;3.93;2.20;;;;;;;;;;5132137;27;20441;-69
2022/09/22 00:20:23;;;;;;;3.47;1.90;;;;;;;;;;5135605;27;20815;-69
2022/09/22 00:22:50;;;;;;;3.67;1.50;;;;;;;;;;5129976;27;20486;-70
2022/09/22 00:25:18;;;;;;;3.47;1.73;;;;;;;;;;5122129;27;20580;-69
2022/09/22 00:27:45;;;;;;;2.53;1.80;;;;;;;;;;5136575;27;20482;-69
2022/09/22 00:30:12;;;;;;;4.43;2.60;;;;;;;;;;5128394;27;20473;-69
2022/09/22 00:32:40;;;;;;;3.80;1.80;;;;;;;;;;5135412;27;20451;-69
2022/09/22 00:35:08;;;;;;;3.20;1.93;;;;;;;;;;5134430;27;20485;-69
2022/09/22 00:37:35;;;;;;;3.00;2.10;;;;;;;;;;5135402;27;20500;-69
2022/09/22 00:40:02;;;;;;;2.97;1.70;;;;;;;;;;5139693;27;20590;-69
2022/09/22 00:42:29;;;;;;;4.60;1.93;;;;;;;;;;5139736;27;20724;-69
2022/09/22 00:44:56;;;;;;;4.17;2.17;;;;;;;;;;5130473;27;20963;-71
2022/09/22 00:47:29;;;;;;;3.50;2.30;;;;;;;;;;5135185;27;20800;-69
2022/09/22 00:49:58;;;;;;;3.73;2.60;;;;;;;;;;5132325;27;20462;-69
2022/09/22 00:52:28;;;;;;;3.63;2.30;;;;;;;;;;5135221;27;20448;-69
2022/09/22 00:54:57;;;;;;;2.30;1.57;;;;;;;;;;5135102;27;20496;-69
2022/09/22 00:57:26;;;;;;;2.90;1.90;;;;;;;;;;5134814;27;20493;-69
2022/09/22 00:59:53;;;;;;;4.73;2.33;;;;;;;;;;5142374;27;20460;-69
2022/09/22 01:02:21;;;;;;;3.50;1.93;;;;;;;;;;5132808;27;20446;-69
2022/09/22 01:04:49;;;;;;;5.33;2.37;;;;;;;;;;5130649;27;20542;-69
2022/09/22 01:07:16;;;;;;;3.50;3.17;;;;;;;;;;5127128;27;20873;-68
2022/09/22 01:09:44;;;;;;;3.50;1.73;;;;;;;;;;5139551;27;20469;-68
2022/09/22 01:12:11;;;;;;;4.23;2.80;;;;;;;;;;5137418;27;20540;-69
2022/09/22 01:14:46;;;;;;;4.50;2.60;;;;;;;;;;5136686;27;20532;-69
2022/09/22 01:17:20;;;;;;;6.20;2.40;;;;;;;;;;5125253;27;20478;-69
2022/09/22 01:20:05;;;;;;;3.20;2.07;;;;;;;;;;5138020;27;20487;-69
2022/09/22 01:22:45;;;;;;;4.80;2.40;;;;;;;;;;5127123;27;20486;-69
2022/09/22 01:25:30;;;;;;;3.27;2.17;;;;;;;;;;5142095;27;20481;-69
2022/09/22 01:28:04;;;;;;;3.00;1.80;;;;;;;;;;5139330;27;20465;-69
2022/09/22 01:30:36;;;;;;;3.90;2.27;;;;;;;;;;5127838;27;20462;-69
2022/09/22 01:33:18;;;;;;;6.10;2.67;;;;;;;;;;5135878;27;20907;-69
2022/09/22 01:35:51;;;;;;;3.40;2.13;;;;;;;;;;5134649;27;20466;-69
2022/09/22 01:38:24;;;;;;;3.47;2.30;;;;;;;;;;5121214;27;20461;-68
2022/09/22 01:40:53;;;;;;;7.23;2.53;;;;;;;;;;5121906;28;20765;-68
2022/09/22 01:43:24;;;;;;;14.23;3.07;;;;;;;;;;5129976;28;20451;-68
2022/09/22 01:45:53;;;;;;;2.63;1.80;;;;;;;;;;5129092;28;20483;-69
2022/09/22 01:48:21;;;;;;;3.23;1.80;;;;;;;;;;5132946;27;20492;-69
2022/09/22 01:50:51;;;;;;;2.80;1.53;;;;;;;;;;5129161;27;20454;-69
2022/09/22 01:53:20;;;;;;;3.77;2.23;;;;;;;;;;5119838;28;20479;-68
2022/09/22 01:55:50;;;;;;;2.83;1.70;;;;;;;;;;5123492;28;20466;-69
2022/09/22 01:58:18;;;;;;;2.50;2.00;;;;;;;;;;5129112;27;20475;-69
2022/09/22 02:00:48;;;;;;;2.87;1.87;;;;;;;;;;5122781;27;20458;-68
2022/09/22 02:03:20;;;;;;;3.60;2.00;;;;;;;;;;5127076;27;20520;-69
2022/09/22 02:05:49;;;;;;;4.73;2.20;;;;;;;;;;5122326;27;20768;-69
2022/09/22 02:08:18;;;;;;;3.23;2.17;;;;;;;;;;5134772;27;20670;-69
2022/09/22 02:10:47;;;;;;;5.67;1.93;;;;;;;;;;5133630;27;20470;-69
2022/09/22 02:13:14;;;;;;;3.80;2.20;;;;;;;;;;5138472;27;20450;-69
2022/09/22 02:16:00;;;;;;;2.77;1.60;;;;;;;;;;5133621;27;20549;-69
2022/09/22 02:18:29;;;;;;;4.33;1.80;;;;;;;;;;5120030;28;20796;-69
2022/09/22 02:20:56;;;;;;;3.17;1.63;;;;;;;;;;5122636;27;20469;-69
2022/09/22 02:23:23;;;;;;;3.43;1.77;;;;;;;;;;5130526;27;20510;-69
2022/09/22 02:25:51;;;;;;;2.93;1.50;;;;;;;;;;5123943;28;20529;-69
2022/09/22 02:28:19;;;;;;;2.00;1.20;;;;;;;;;;5129686;28;20469;-69
2022/09/22 02:30:48;;;;;;;2.60;2.00;;;;;;;;;;5131096;27;20454;-69
2022/09/22 02:33:15;;;;;;;4.03;2.50;;;;;;;;;;5133295;27;20870;-69
2022/09/22 02:35:44;;;;;;;6.57;1.87;;;;;;;;;;5129183;27;20458;-69
2022/09/22 02:38:14;;;;;;;2.80;1.60;;;;;;;;;;5125233;27;20458;-69
2022/09/22 02:40:45;;;;;;;3.20;1.57;;;;;;;;;;5125631;28;20936;-69
2022/09/22 02:43:15;;;;;;;3.13;1.60;;;;;;;;;;5131555;27;20587;-69
2022/09/22 02:45:45;;;;;;;8.90;2.27;;;;;;;;;;5135270;27;20520;-69
2022/09/22 02:48:15;;;;;;;2.80;1.70;;;;;;;;;;5118260;28;20446;-69
2022/09/22 02:50:44;;;;;;;2.90;1.80;;;;;;;;;;5120733;28;20485;-68
2022/09/22 02:53:12;;;;;;;2.70;1.80;;;;;;;;;;5133780;27;20447;-68
2022/09/22 02:55:40;;;;;;;4.27;2.00;;;;;;;;;;5134911;27;20458;-69
2022/09/22 02:58:07;;;;;;;3.20;1.57;;;;;;;;;;5128258;28;20450;-69
2022/09/22 03:00:34;;;;;;;4.97;1.60;;;;;;;;;;5136260;27;20481;-69
2022/09/22 03:03:01;;;;;;;3.53;1.40;;;;;;;;;;5127422;28;20772;-68
2022/09/22 03:05:29;;;;;;;3.53;1.80;;;;;;;;;;5120145;28;20493;-68
2022/09/22 03:07:57;;;;;;;5.07;1.90;;;;;;;;;;5131707;27;20454;-69
2022/09/22 03:10:24;;;;;;;7.30;5.23;;;;;;;;;;5125858;27;20460;-69
2022/09/22 03:12:56;;;;;;;6.00;2.23;;;;;;;;;;5126591;27;20788;-69
2022/09/22 03:15:23;;;;;;;6.17;2.33;;;;;;;;;;5119259;28;20454;-69
2022/09/22 03:17:50;;;;;;;2.80;1.50;;;;;;;;;;5133253;27;20458;-69
2022/09/22 03:20:17;;;;;;;2.40;1.40;;;;;;;;;;5131629;27;20459;-68
2022/09/22 03:22:44;;;;;;;3.17;1.50;;;;;;;;;;5128697;27;20525;-69
2022/09/22 03:25:12;;;;;;;4.00;1.90;;;;;;;;;;5133407;27;20565;-69
2022/09/22 03:27:39;;;;;;;3.90;2.10;;;;;;;;;;5127154;27;20454;-69
2022/09/22 03:30:08;;;;;;;2.90;1.97;;;;;;;;;;5129776;27;20463;-69
2022/09/22 03:32:38;;;;;;;2.60;1.90;;;;;;;;;;5128067;28;20451;-69
2022/09/22 03:35:06;;;;;;;3.10;1.90;;;;;;;;;;5118547;28;20454;-68
2022/09/22 03:37:33;;;;;;;2.60;1.60;;;;;;;;;;5127084;27;20469;-69
2022/09/22 03:40:00;;;;;;;2.30;1.47;;;;;;;;;;5126597;28;20454;-70
2022/09/22 03:42:28;;;;;;;3.47;2.17;;;;;;;;;;5122762;27;20474;-69
2022/09/22 03:44:55;;;;;;;3.43;1.60;;;;;;;;;;5131741;27;20540;-70
2022/09/22 03:47:22;;;;;;;4.80;1.63;;;;;;;;;;5122826;28;20472;-69
2022/09/22 03:49:49;;;;;;;9.13;1.70;;;;;;;;;;5134878;27;20588;-70
2022/09/22 03:52:16;;;;;;;5.73;1.80;;;;;;;;;;5137403;27;20476;-69
2022/09/22 03:54:43;;;;;;;3.67;1.97;;;;;;;;;;5132880;28;20480;-69
2022/09/22 03:57:10;;;;;;;2.70;1.80;;;;;;;;;;5125784;27;20530;-69
2022/09/22 03:59:38;;;;;;;3.53;1.57;;;;;;;;;;5135020;27;20465;-70
2022/09/22 04:02:05;;;;;;;2.50;1.70;;;;;;;;;;5124577;28;20457;-69
2022/09/22 04:04:32;;;;;;;2.27;1.47;;;;;;;;;;5117089;28;20834;-69
2022/09/22 04:06:59;;;;;;;3.23;1.73;;;;;;;;;;5129148;27;20438;-70
2022/09/22 04:09:26;;;;;;;6.50;1.80;;;;;;;;;;5138432;27;20460;-69
2022/09/22 04:11:53;;;;;;;3.33;2.03;;;;;;;;;;5128101;27;20470;-69
2022/09/22 04:14:20;;;;;;;3.60;1.30;;;;;;;;;;5124420;27;20470;-69
2022/09/22 04:16:48;;;;;;;2.87;1.70;;;;;;;;;;5121196;27;20454;-69
2022/09/22 04:19:15;;;;;;;4.00;1.70;;;;;;;;;;5131771;27;20469;-69
2022/09/22 04:21:44;;;;;;;4.50;2.30;;;;;;;;;;5125418;28;20447;-70
2022/09/22 04:24:11;;;;;;;3.00;1.87;;;;;;;;;;5133382;27;21114;-69
2022/09/22 04:26:38;;;;;;;2.70;1.67;;;;;;;;;;5126971;27;20458;-69
2022/09/22 04:29:05;;;;;;;3.00;2.00;;;;;;;;;;5115808;27;20466;-69
2022/09/22 04:31:32;;;;;;;4.23;2.33;;;;;;;;;;5134683;27;20465;-69
2022/09/22 04:34:00;;;;;;;3.70;2.20;;;;;;;;;;5124508;28;20458;-69
2022/09/22 04:36:27;;;;;;;3.90;2.10;;;;;;;;;;5131350;27;20446;-70
2022/09/22 04:38:54;;;;;;;3.10;2.00;;;;;;;;;;5122495;28;20454;-69
2022/09/22 04:41:21;;;;;;;3.40;1.73;;;;;;;;;;5117026;28;20454;-69
2022/09/22 04:43:48;;;;;;;3.73;2.20;;;;;;;;;;5121031;28;21152;-69
2022/09/22 04:46:15;;;;;;;2.80;1.97;;;;;;;;;;5122831;27;20867;-69
2022/09/22 04:48:44;;;;;;;6.53;2.20;;;;;;;;;;5126645;27;20446;-69
2022/09/22 04:51:12;;;;;;;3.10;2.00;;;;;;;;;;5133706;27;20453;-69
2022/09/22 04:53:39;;;;;;;3.70;2.07;;;;;;;;;;5128172;27;20443;-69
2022/09/22 04:56:07;;;;;;;4.87;1.97;;;;;;;;;;5124668;27;20469;-69
2022/09/22 04:58:35;;;;;;;7.47;3.00;;;;;;;;;;5130033;27;20442;-70
2022/09/22 05:01:02;;;;;;;3.03;1.47;;;;;;;;;;5130019;27;21028;-69
2022/09/22 05:03:30;;;;;;;2.80;1.90;;;;;;;;;;5127573;28;20457;-69
2022/09/22 05:05:57;;;;;;;4.40;2.07;;;;;;;;;;5128597;27;20485;-69
2022/09/22 05:08:25;;;;;;;3.00;1.90;;;;;;;;;;5137459;27;20453;-70
2022/09/22 05:10:52;;;;;;;4.00;2.63;;;;;;;;;;5132621;27;20534;-69
2022/09/22 05:13:19;;;;;;;4.00;3.00;;;;;;;;;;5120281;28;20450;-69
2022/09/22 05:15:46;;;;;;;3.90;2.53;;;;;;;;;;5131342;27;21174;-69
2022/09/22 05:18:13;;;;;;;3.00;1.87;;;;;;;;;;5118298;28;20446;-69
2022/09/22 05:20:41;;;;;;;3.90;2.50;;;;;;;;;;5123772;28;20545;-69
2022/09/22 05:23:08;;;;;;;5.30;2.67;;;;;;;;;;5127829;27;20838;-69
2022/09/22 05:25:36;;;;;;;2.67;1.70;;;;;;;;;;5122327;27;20537;-69
2022/09/22 05:28:03;;;;;;;3.77;2.20;;;;;;;;;;5115417;27;20454;-69
2022/09/22 05:30:30;;;;;;;4.67;2.30;;;;;;;;;;5127150;28;20461;-69
2022/09/22 05:32:57;;;;;;;3.17;2.30;;;;;;;;;;5115466;28;20451;-69
2022/09/22 05:35:25;;;;;;;3.23;2.50;;;;;;;;;;5127914;27;20526;-69
2022/09/22 05:37:52;;;;;;;7.13;2.47;;;;;;;;;;5117076;28;20458;-69
2022/09/22 05:40:22;;;;;;;3.87;2.23;;;;;;;;;;5133909;27;20557;-69
2022/09/22 05:42:51;;;;;;;3.90;2.40;;;;;;;;;;5116086;28;20888;-69
2022/09/22 05:45:18;;;;;;;4.40;2.43;;;;;;;;;;5125364;28;20530;-68
2022/09/22 05:47:45;;;;;;;4.10;2.53;;;;;;;;;;5126886;27;20548;-69
2022/09/22 05:50:13;;;;;;;10.57;3.03;;;;;;;;;;5117531;27;20619;-69
2022/09/22 05:52:40;;;;;;;7.00;3.03;;;;;;;;;;5122180;28;20524;-69
2022/09/22 05:55:09;;;;;;;3.73;3.10;;;;;;;;;;5115199;28;20611;-69
2022/09/22 05:57:37;;;;;;;4.90;2.97;;;;;;;;;;5125184;27;20968;-69
2022/09/22 06:00:07;;;;;;;4.23;2.40;;;;;;;;;;5124538;28;20731;-69
2022/09/22 06:05:17;;;;;;;3.00;2.10;;;;;;;;;;5133427;27;20485;-69
2022/09/22 06:07:44;;;;;;;3.97;2.60;;;;;;;;;;5124871;28;20458;-69
2022/09/22 06:10:11;;;;;;;4.33;3.10;;;;;;;;;;5117173;28;20470;-69
2022/09/22 06:12:39;;;;;;;4.93;2.67;;;;;;;;;;5125604;27;20470;-69
2022/09/22 06:15:08;;;;;;;3.73;2.50;;;;;;;;;;5118006;27;21184;-69
2022/09/22 06:17:35;;;;;;;5.87;2.50;;;;;;;;;;5113352;28;20447;-69
2022/09/22 06:20:02;;;;;;;3.17;2.30;;;;;;;;;;5121986;27;20455;-69
2022/09/22 06:22:34;;;;;;;4.77;2.77;;;;;;;;;;5126052;27;20473;-69
2022/09/22 06:25:02;;;;;;;5.50;3.27;;;;;;;;;;5115062;27;20488;-69
2022/09/22 06:27:29;;;;;;;5.20;2.53;;;;;;;;;;5127635;27;20548;-68
2022/09/22 06:29:57;;;;;;;7.57;3.50;;;;;;;;;;5122767;28;20564;-68
2022/09/22 06:32:27;;;;;;;4.17;2.63;;;;;;;;;;5132634;27;20450;-69
2022/09/22 06:34:54;;;;;;;3.13;2.37;;;;;;;;;;5132823;27;20488;-70
2022/09/22 06:37:22;;;;;;;3.93;2.53;;;;;;;;;;5130575;27;20453;-69
2022/09/22 06:39:52;;;;;;;6.67;3.30;;;;;;;;;;5129599;27;20882;-69
2022/09/22 06:42:19;;;;;;;6.93;3.40;;;;;;;;;;5132714;27;20454;-68
2022/09/22 06:44:46;;;;;;;5.33;3.00;;;;;;;;;;5127117;27;20520;-68
2022/09/22 06:47:17;;;;;;;5.90;3.63;;;;;;;;;;5115832;28;20470;-69
2022/09/22 06:49:45;;;;;;;4.97;3.43;;;;;;;;;;5129837;27;20458;-69
2022/09/22 06:52:15;;;;;;;5.27;3.17;;;;;;;;;;5134946;27;20458;-69
2022/09/22 06:54:43;;;;;;;6.63;3.10;;;;;;;;;;5122042;28;20472;-69
2022/09/22 06:57:10;;;;;;;6.33;3.00;;;;;;;;;;5135554;27;20882;-69
2022/09/22 06:59:40;;;;;;;7.70;3.60;;;;;;;;;;5114660;28;20475;-69
2022/09/22 07:02:07;;;;;;;7.80;3.73;;;;;;;;;;5116668;28;20463;-68
2022/09/22 07:04:38;;;;;;;7.67;4.13;;;;;;;;;;5121133;27;20511;-69
2022/09/22 07:07:13;;;;;;;4.87;3.00;;;;;;;;;;5120906;28;20443;-69
2022/09/22 07:09:46;;;;;;;6.63;3.87;;;;;;;;;;5122237;28;20465;-69
2022/09/22 07:12:14;;;;;;;4.50;3.30;;;;;;;;;;5130358;27;20446;-69
2022/09/22 07:14:41;;;;;;;11.00;3.03;;;;;;;;;;5116151;28;22012;-69
2022/09/22 07:17:10;;;;;;;7.50;3.20;;;;;;;;;;5127900;27;20454;-68
2022/09/22 07:19:37;;;;;;;6.93;4.93;;;;;;;;;;5122224;28;20483;-67
2022/09/22 07:22:05;;;;;;;7.13;3.10;;;;;;;;;;5117414;28;20472;-70
2022/09/22 07:24:33;;;;;;;4.83;3.00;;;;;;;;;;5119859;27;20493;-68
2022/09/22 07:27:06;;;;;;;7.07;3.57;;;;;;;;;;5120445;27;20549;-70
2022/09/22 07:29:34;;;;;;;4.17;2.50;;;;;;;;;;5121360;27;20553;-70
2022/09/22 07:32:02;;;;;;;3.73;2.30;;;;;;;;;;5114093;28;20458;-69
2022/09/22 07:34:29;;;;;;;4.03;2.70;;;;;;;;;;5115567;28;20466;-69
2022/09/22 07:36:56;;;;;;;5.97;3.20;;;;;;;;;;5131843;27;20831;-70
2022/09/22 07:39:50;;;;;;;5.00;3.30;;;;;;;;;;5116977;28;20486;-68
2022/09/22 07:42:22;;;;;;;4.37;2.80;;;;;;;;;;5117792;27;20470;-68
2022/09/22 07:50:21;;;;;;;4.27;2.40;;;;;;;;;;5123589;27;20470;-67
2022/09/22 07:52:53;;;;;;;3.43;2.43;;;;;;;;;;5118453;28;20537;-69
2022/09/22 07:55:23;;;;;;;5.53;2.90;;;;;;;;;;5112992;28;20486;-68
2022/09/22 07:57:56;;;;;;;6.60;2.97;;;;;;;;;;5125205;28;20465;-68
2022/09/22 08:00:24;;;;;;;6.53;2.67;;;;;;;;;;5122116;27;20516;-68
2022/09/22 08:03:00;;;;;;;4.93;2.53;;;;;;;;;;5131383;27;20470;-68
2022/09/22 08:05:30;;;;;;;5.43;2.70;;;;;;;;;;5124182;28;20561;-69
2022/09/22 08:07:57;;;;;;;7.23;3.30;;;;;;;;;;5134428;27;20510;-68
2022/09/22 08:10:25;;;;;;;4.60;2.83;;;;;;;;;;5120192;28;20465;-68
2022/09/22 08:12:54;;;;;;;5.53;3.30;;;;;;;;;;5116626;28;20739;-68
2022/09/22 08:15:23;;;;;;;4.67;2.20;;;;;;;;;;5115410;27;20473;-68
2022/09/22 08:17:58;;;;;;;14.53;9.80;;;;;;;;;;5123260;28;20471;-68
2022/09/22 08:20:28;;;;;;;7.10;2.50;;;;;;;;;;5135250;27;20471;-69
2022/09/22 08:23:01;;;;;;;3.37;1.80;;;;;;;;;;5134241;27;20461;-68
2022/09/22 08:25:30;;;;;;;5.53;1.83;;;;;;;;;;5127664;27;20482;-69
2022/09/22 08:28:03;;;;;;;5.53;2.50;;;;;;;;;;5118649;28;20461;-68
2022/09/22 08:30:33;;;;;;;8.47;2.50;;;;;;;;;;5113440;28;20470;-69
2022/09/22 08:33:07;;;;;;;4.73;2.30;;;;;;;;;;5116630;27;20537;-69
2022/09/22 08:35:40;;;;;;;6.63;2.80;;;;;;;;;;5116204;28;20469;-69
2022/09/22 08:38:24;;;;;;;4.90;2.33;;;;;;;;;;5126337;28;20441;-70
2022/09/22 08:41:11;;;;;;;5.37;2.23;;;;;;;;;;5134019;27;20453;-69
2022/09/22 08:43:46;;;;;;;4.03;2.13;;;;;;;;;;5121117;28;20451;-69
2022/09/22 08:46:46;;;;;;;3.20;1.90;;;;;;;;;;5102572;28;20473;-70
2022/09/22 08:52:07;;;;;;;4.20;1.77;;;;;;;;;;5126153;27;20962;-71
2022/09/22 08:54:37;;;;;;;5.93;2.30;;;;;;;;;;5118468;27;20446;-71
2022/09/22 08:57:30;;;;;;;3.80;2.00;;;;;;;;;;5117968;27;21242;-71
2022/09/22 09:00:03;;;;;;;3.40;1.77;;;;;;;;;;5126065;28;20826;-71
2022/09/22 09:02:41;;;;;;;4.37;2.40;;;;;;;;;;5129504;27;20450;-71
2022/09/22 09:05:26;;;;;;;4.70;1.87;;;;;;;;;;5122091;28;20600;-71
2022/09/22 09:08:02;;;;;;;67.47;32.63;;;;;;;;;;5123946;28;20451;-71
2022/09/22 09:10:40;;;;;;;7.50;3.80;;;;;;;;;;5123247;27;20761;-71
2022/09/22 09:13:30;;;;;;;7.13;2.00;;;;;;;;;;5134117;27;20461;-70
2022/09/22 09:16:04;;;;;;;5.60;1.70;;;;;;;;;;5123525;27;20470;-71
2022/09/22 09:18:34;;;;;;;4.03;1.60;;;;;;;;;;5120545;27;20457;-71
2022/09/22 09:21:03;;;;;;;4.50;1.90;;;;;;;;;;5125475;27;20496;-71
2022/09/22 09:23:35;;;;;;;5.40;2.50;;;;;;;;;;5120339;27;20454;-71
2022/09/22 09:26:10;;;;;;;5.40;2.60;;;;;;;;;;5121181;28;20497;-72
2022/09/22 09:28:41;;;;;;;4.00;1.43;;;;;;;;;;5122534;28;20450;-72
2022/09/22 09:31:13;;;;;;;3.77;1.10;;;;;;;;;;5121519;27;20473;-71
2022/09/22 09:33:44;;;;;;;4.83;0.90;;;;;;;;;;5134623;27;20458;-72
2022/09/22 09:36:14;;;;;;;3.10;1.80;;;;;;;;;;5119630;28;20458;-72
2022/09/22 09:38:46;;;;;;;3.87;1.87;;;;;;;;;;5123116;27;20457;-73
2022/09/22 09:41:17;;;;;;;3.77;1.23;;;;;;;;;;5131739;27;20565;-71
2022/09/22 09:43:45;;;;;;;2.70;1.60;;;;;;;;;;5131891;27;20469;-71
2022/09/22 09:46:23;;;;;;;3.90;1.97;;;;;;;;;;5138952;27;20493;-71
2022/09/22 09:49:05;;;;;;;4.37;1.30;;;;;;;;;;5129770;28;20438;-72
2022/09/22 09:51:37;;;;;;;5.63;1.60;;;;;;;;;;5128692;27;20533;-72
2022/09/22 09:54:08;;;;;;;5.13;1.47;;;;;;;;;;5119386;27;20451;-72
2022/09/22 09:56:36;;;;;;;4.27;1.37;;;;;;;;;;5121830;27;20473;-72
2022/09/22 10:01:53;;;;;;;3.63;1.77;;;;;;;;;;5135295;27;20880;-71
2022/09/22 10:04:28;;;;;;;5.77;1.47;;;;;;;;;;5120030;28;20478;-71
2022/09/22 10:06:56;;;;;;;6.63;1.40;;;;;;;;;;5120820;28;20435;-72
2022/09/22 10:09:25;;;;;;;5.83;2.53;;;;;;;;;;5124967;28;20993;-71
2022/09/22 10:12:07;;;;;;;5.10;1.10;;;;;;;;;;5127670;27;20959;-72
2022/09/22 10:14:54;;;;;;;3.23;1.23;;;;;;;;;;5121999;28;20469;-72
2022/09/22 10:17:26;;;;;;;9.10;6.30;;;;;;;;;;5120717;27;20463;-72
2022/09/22 10:20:16;;;;;;;9.80;7.00;;;;;;;;;;5116634;28;20590;-71
2022/09/22 10:22:49;;;;;;;2.83;1.10;;;;;;;;;;5117852;27;20537;-72
2022/09/22 10:25:23;;;;;;;7.00;1.67;;;;;;;;;;5117213;28;20535;-71
2022/09/22 10:28:05;;;;;;;3.20;1.57;;;;;;;;;;5118486;27;20949;-71
2022/09/22 10:30:45;;;;;;;5.00;1.53;;;;;;;;;;5124026;27;20462;-72
2022/09/22 10:33:24;;;;;;;7.40;1.37;;;;;;;;;;5126581;27;20473;-71
2022/09/22 10:36:24;;;;;;;2.37;1.07;;;;;;;;;;5123198;28;20590;-71
2022/09/22 10:39:08;;;;;;;2.70;1.27;;;;;;;;;;5116153;28;20470;-71
2022/09/22 10:41:40;;;;;;;3.43;1.33;;;;;;;;;;5125372;27;20465;-71
2022/09/22 10:44:25;;;;;;;2.80;0.93;;;;;;;;;;5118587;28;20897;-71
2022/09/22 10:47:08;;;;;;;2.90;0.90;;;;;;;;;;5130285;27;20458;-72
2022/09/22 10:49:50;;;;;;;5.30;2.80;;;;;;;;;;5118546;28;20442;-71
2022/09/22 10:52:20;;;;;;;2.73;1.07;;;;;;;;;;5125178;27;20820;-71
2022/09/22 10:54:55;;;;;;;4.77;1.40;;;;;;;;;;5118947;28;20462;-71
2022/09/22 10:57:31;;;;;;;4.80;2.37;;;;;;;;;;5112432;27;20527;-71
2022/09/22 11:00:13;;;;;;;8.87;2.70;;;;;;;;;;5132452;27;20446;-72
2022/09/22 11:02:58;;;;;;;7.50;4.67;;;;;;;;;;5126254;27;20470;-74
2022/09/22 11:14:12;;;;;;;3.53;1.40;;;;;;;;;;5114088;28;20505;-71
2022/09/22 11:16:51;;;;;;;7.87;1.83;;;;;;;;;;5114836;28;20450;-70
2022/09/22 11:19:40;;;;;;;4.10;1.10;;;;;;;;;;5111442;28;20447;-70
2022/09/22 11:22:19;;;;;;;3.13;1.30;;;;;;;;;;5122285;27;20526;-70
2022/09/22 11:24:52;;;;;;;5.57;1.23;;;;;;;;;;5125211;27;21114;-71
2022/09/22 11:27:24;;;;;;;3.03;1.13;;;;;;;;;;5112860;28;21079;-70
2022/09/22 11:30:10;;;;;;;3.10;1.10;;;;;;;;;;5113444;28;20455;-70
2022/09/22 11:32:48;;;;;;;2.70;1.60;;;;;;;;;;5120701;27;20466;-70
2022/09/22 11:35:31;;;;;;;2.97;1.20;;;;;;;;;;5112844;28;20458;-72
2022/09/22 11:38:08;;;;;;;5.40;3.50;;;;;;;;;;5130568;27;20442;-70
2022/09/22 11:40:57;;;;;;;4.47;1.57;;;;;;;;;;5132605;27;20540;-70
2022/09/22 11:43:35;;;;;;;5.00;1.43;;;;;;;;;;5114526;28;20549;-71
2022/09/22 11:46:07;;;;;;;3.63;1.40;;;;;;;;;;5112991;27;20489;-71
2022/09/22 11:48:45;;;;;;;3.40;1.50;;;;;;;;;;5132185;27;20462;-71
2022/09/22 11:51:50;;;;;;;3.10;1.40;;;;;;;;;;5118359;28;20464;-71
2022/09/22 11:54:38;;;;;;;3.73;1.30;;;;;;;;;;5096750;28;20544;-70
2022/09/22 11:57:09;;;;;;;3.07;1.67;;;;;;;;;;5131366;27;20750;-69
2022/09/22 11:59:42;;;;;;;7.23;1.80;;;;;;;;;;5112964;28;20458;-70
2022/09/22 12:02:16;;;;;;;3.07;1.00;;;;;;;;;;5114226;28;20543;-71
2022/09/22 12:04:45;;;;;;;6.20;1.17;;;;;;;;;;5116533;28;20502;-71
2022/09/22 12:07:27;;;;;;;3.27;1.30;;;;;;;;;;5117870;28;20467;-69
2022/09/22 12:09:56;;;;;;;3.97;1.80;;;;;;;;;;5120390;28;20465;-69
2022/09/22 12:12:24;;;;;;;3.93;1.47;;;;;;;;;;5132677;27;20470;-69
2022/09/22 12:14:57;;;;;;;3.67;1.33;;;;;;;;;;5129040;27;20457;-68
2022/09/22 12:17:27;;;;;;;2.23;0.80;;;;;;;;;;5130298;27;20454;-69
2022/09/22 12:19:59;;;;;;;4.23;1.83;;;;;;;;;;5132581;27;20446;-70
2022/09/22 12:22:30;;;;;;;3.60;1.63;;;;;;;;;;5133114;27;20460;-68
2022/09/22 12:24:58;;;;;;;3.47;1.60;;;;;;;;;;5113083;28;20527;-68
2022/09/22 12:27:28;;;;;;;5.30;3.90;;;;;;;;;;5112176;27;20462;-69
2022/09/22 12:29:56;;;;;;;3.00;1.60;;;;;;;;;;5123833;27;20452;-69
2022/09/22 12:32:25;;;;;;;2.63;1.30;;;;;;;;;;5113550;28;20620;-69
2022/09/22 12:34:59;;;;;;;2.87;1.20;;;;;;;;;;5113456;28;20458;-71
2022/09/22 12:37:30;;;;;;;3.03;1.00;;;;;;;;;;5132135;27;20493;-70
2022/09/22 12:40:02;;;;;;;3.47;1.90;;;;;;;;;;5134350;27;20442;-71
2022/09/22 12:42:34;;;;;;;2.93;1.40;;;;;;;;;;5131799;27;20461;-70
2022/09/22 12:45:06;;;;;;;5.37;1.77;;;;;;;;;;5118691;28;20899;-70
2022/09/22 12:47:35;;;;;;;2.50;1.50;;;;;;;;;;5114563;27;20545;-69
2022/09/22 12:50:06;;;;;;;2.90;1.37;;;;;;;;;;5113031;28;20458;-70
2022/09/22 12:52:37;;;;;;;3.83;1.70;;;;;;;;;;5113287;28;20470;-69
2022/09/22 12:55:25;;;;;;;2.57;1.37;;;;;;;;;;5126656;27;20550;-69
2022/09/22 12:57:58;;;;;;;2.47;1.00;;;;;;;;;;5111339;28;20746;-69
2022/09/22 13:00:38;;;;;;;9.10;2.47;;;;;;;;;;5121559;27;20465;-70
2022/09/22 13:03:20;;;;;;;4.33;1.37;;;;;;;;;;5124905;27;20462;-71
2022/09/22 13:05:48;;;;;;;5.03;1.30;;;;;;;;;;5112212;28;20486;-70
2022/09/22 13:08:22;;;;;;;6.43;1.57;;;;;;;;;;5114509;27;21060;-70
2022/09/22 13:10:56;;;;;;;2.60;1.10;;;;;;;;;;5132515;27;20445;-71
2022/09/22 13:13:35;;;;;;;6.63;1.33;;;;;;;;;;5119429;27;20538;-72
2022/09/22 13:16:03;;;;;;;4.50;2.13;;;;;;;;;;5130913;27;20471;-71
2022/09/22 13:18:34;;;;;;;2.93;1.30;;;;;;;;;;5131807;27;20514;-70
2022/09/22 13:21:05;;;;;;;3.30;1.37;;;;;;;;;;5125245;28;20538;-70
2022/09/22 13:23:35;;;;;;;2.07;1.13;;;;;;;;;;5129948;28;20881;-70
2022/09/22 13:26:06;;;;;;;3.77;1.30;;;;;;;;;;5125254;27;21144;-71
2022/09/22 13:28:34;;;;;;;4.20;1.40;;;;;;;;;;5132633;27;20441;-69
2022/09/22 13:31:02;;;;;;;3.73;1.30;;;;;;;;;;5115264;28;20474;-69
2022/09/22 13:33:32;;;;;;;1.83;0.80;;;;;;;;;;5114166;28;20957;-70
2022/09/22 13:36:02;;;;;;;2.30;1.03;;;;;;;;;;5116903;27;20545;-70
2022/09/22 13:38:32;;;;;;;2.20;1.20;;;;;;;;;;5136023;27;20481;-70
2022/09/22 13:40:59;;;;;;;4.10;1.20;;;;;;;;;;5132852;27;20485;-69
2022/09/22 13:43:39;;;;;;;2.77;1.10;;;;;;;;;;5135512;27;20545;-69
2022/09/22 13:46:09;;;;;;;4.30;1.33;;;;;;;;;;5135099;27;20520;-69
2022/09/22 13:48:38;;;;;;;5.13;2.43;;;;;;;;;;5134454;27;20450;-69
2022/09/22 13:51:09;;;;;;;3.30;2.30;;;;;;;;;;5121669;28;20815;-70
2022/09/22 13:53:43;;;;;;;2.37;1.27;;;;;;;;;;5127215;27;20512;-69
2022/09/22 13:56:14;;;;;;;3.53;2.10;;;;;;;;;;5127044;27;20465;-70
2022/09/22 13:58:42;;;;;;;3.13;1.27;;;;;;;;;;5134865;27;20438;-69
2022/09/22 14:01:14;;;;;;;2.47;1.40;;;;;;;;;;5133852;27;20460;-69
2022/09/22 14:03:43;;;;;;;3.97;1.30;;;;;;;;;;5119612;28;21193;-69
2022/09/22 14:06:18;;;;;;;4.07;2.03;;;;;;;;;;5126069;27;21054;-69
2022/09/22 14:08:46;;;;;;;2.57;1.40;;;;;;;;;;5116692;28;20454;-69
2022/09/22 14:11:15;;;;;;;3.50;1.83;;;;;;;;;;5116870;28;20474;-69
2022/09/22 14:13:43;;;;;;;4.10;1.50;;;;;;;;;;5116401;28;20453;-68
2022/09/22 14:16:28;;;;;;;7.70;1.63;;;;;;;;;;5117427;27;20503;-71
2022/09/22 14:19:04;;;;;;;4.93;2.47;;;;;;;;;;5116350;27;20455;-70
2022/09/22 14:21:44;;;;;;;4.23;1.73;;;;;;;;;;5126318;27;20450;-71
2022/09/22 14:24:14;;;;;;;3.00;1.50;;;;;;;;;;5119489;27;20499;-71
2022/09/22 14:26:45;;;;;;;3.40;1.97;;;;;;;;;;5123625;27;20513;-70
2022/09/22 14:29:17;;;;;;;4.23;1.80;;;;;;;;;;5124501;27;20433;-70
2022/09/22 14:31:47;;;;;;;2.40;1.40;;;;;;;;;;5131207;27;20461;-70
2022/09/22 14:34:19;;;;;;;3.80;2.33;;;;;;;;;;5119818;28;20446;-70
2022/09/22 14:36:49;;;;;;;4.00;2.03;;;;;;;;;;5116367;27;20490;-70
2022/09/22 14:39:19;;;;;;;4.10;1.80;;;;;;;;;;5127342;27;20450;-70
2022/09/22 14:42:07;;;;;;;3.13;1.77;;;;;;;;;;5123319;27;20468;-69
2022/09/22 14:44:37;;;;;;;3.23;1.30;;;;;;;;;;5117708;28;21064;-69
2022/09/22 14:47:10;;;;;;;3.00;1.10;;;;;;;;;;5113291;27;20458;-68
2022/09/22 14:49:40;;;;;;;7.03;2.10;;;;;;;;;;5123012;28;20458;-68
2022/09/22 14:52:10;;;;;;;2.20;0.90;;;;;;;;;;5134380;27;20919;-69
2022/09/22 14:54:40;;;;;;;4.83;2.37;;;;;;;;;;5119618;27;20457;-69
2022/09/22 14:57:12;;;;;;;5.10;2.23;;;;;;;;;;5119067;27;20599;-70
2022/09/22 15:02:32;;;;;;;3.23;1.17;;;;;;;;;;5116178;28;20458;-70
2022/09/22 15:05:05;;;;;;;1.80;0.97;;;;;;;;;;5122993;27;20476;-70
2022/09/22 15:07:34;;;;;;;5.63;1.20;;;;;;;;;;5115632;28;20466;-69
2022/09/22 15:10:03;;;;;;;4.77;1.77;;;;;;;;;;5117158;27;20953;-69
2022/09/22 15:12:36;;;;;;;3.03;1.50;;;;;;;;;;5115725;28;20962;-70
2022/09/22 15:15:04;;;;;;;2.30;1.27;;;;;;;;;;5129018;27;20446;-69
2022/09/22 15:20:25;;;;;;;3.77;2.00;;;;;;;;;;5127412;27;20599;-69
2022/09/22 15:22:53;;;;;;;9.90;3.70;;;;;;;;;;5113404;27;20528;-70
2022/09/22 15:25:21;;;;;;;2.07;0.90;;;;;;;;;;5125019;27;20483;-70
2022/09/22 15:27:52;;;;;;;3.33;1.30;;;;;;;;;;5124704;28;20458;-70
2022/09/22 15:30:20;;;;;;;2.93;1.37;;;;;;;;;;5112710;28;20561;-69
2022/09/22 15:32:49;;;;;;;6.10;1.50;;;;;;;;;;5113033;28;20462;-70
2022/09/22 15:35:17;;;;;;;3.90;2.30;;;;;;;;;;5122095;27;20765;-69